createdAt,value
2023-05-12T00:00:44.427Z,100179.44
2023-05-12T00:03:15.286Z,100185.53
2023-05-12T00:05:45.806Z,100189.59
2023-05-12T00:08:16.257Z,100190.00
2023-05-12T00:10:46.453Z,100179.88
2023-05-12T00:13:17.469Z,100171.38
2023-05-12T00:15:49.929Z,100187.56
2023-05-12T00:18:20.756Z,100186.78
2023-05-12T00:20:51.165Z,100194.88
2023-05-12T00:23:21.289Z,100197.31
2023-05-12T00:25:51.952Z,100203.03
2023-05-12T00:28:22.676Z,100196.94
2023-05-12T00:30:55.006Z,100172.66
2023-05-12T00:33:26.137Z,100186.84
2023-05-12T00:35:56.719Z,100188.06
2023-05-12T00:38:26.645Z,100183.63
2023-05-12T00:40:57.095Z,100175.53
2023-05-12T00:43:27.343Z,100179.59
2023-05-12T00:46:00.382Z,100173.91
2023-05-12T00:48:31.074Z,100190.13
2023-05-12T00:51:03.090Z,100192.16
2023-05-12T00:53:45.443Z,100184.06
2023-05-12T00:56:19.746Z,100186.50
2023-05-12T00:58:50.023Z,100192.16
2023-05-12T01:01:22.234Z,100189.75
2023-05-12T01:03:52.952Z,100172.75
2023-05-12T01:06:35.343Z,100156.97
2023-05-12T01:09:06.280Z,100175.63
2023-05-12T01:11:36.777Z,100179.66
2023-05-12T01:14:07.450Z,100174.78
2023-05-12T01:16:48.600Z,100180.06
2023-05-12T01:19:42.117Z,100183.75
2023-05-12T01:22:15.063Z,100184.91
2023-05-12T01:24:53.427Z,100184.91
2023-05-12T01:27:28.058Z,100199.47
2023-05-12T01:30:02.385Z,100184.53
2023-05-12T01:32:32.913Z,100170.78
2023-05-12T01:35:03.070Z,100182.50
2023-05-12T01:37:33.696Z,100186.16
2023-05-12T01:40:04.748Z,100186.16
2023-05-12T01:42:37.426Z,100169.56
2023-05-12T01:45:08.600Z,100180.09
2023-05-12T01:47:39.361Z,100183.34
2023-05-12T01:50:10.700Z,100179.69
2023-05-12T01:52:44.998Z,100177.28
2023-05-12T01:55:15.137Z,100167.94
2023-05-12T01:57:46.761Z,100170.00
2023-05-12T02:00:17.422Z,100177.66
2023-05-12T02:02:47.945Z,100200.75
2023-05-12T02:05:18.696Z,100197.13
2023-05-12T02:07:49.214Z,100172.84
2023-05-12T02:10:20.405Z,100187.00
2023-05-12T02:12:52.516Z,100211.69
2023-05-12T02:15:23.179Z,100203.63
2023-05-12T02:17:54.749Z,100187.81
2023-05-12T02:20:25.327Z,100195.94
2023-05-12T02:22:55.533Z,100214.13
2023-05-12T02:25:26.174Z,100206.06
2023-05-12T02:27:58.133Z,100211.72
2023-05-12T02:30:28.637Z,100230.38
2023-05-12T02:32:59.109Z,100217.41
2023-05-12T02:35:29.624Z,100209.72
2023-05-12T02:38:00.226Z,100237.25
2023-05-12T02:40:30.039Z,100234.81
2023-05-12T02:43:02.048Z,100218.25
2023-05-12T02:45:32.703Z,100237.28
2023-05-12T02:48:02.804Z,100239.69
2023-05-12T02:50:33.426Z,100233.22
2023-05-12T02:53:03.589Z,100233.63
2023-05-12T02:55:34.378Z,100238.50
2023-05-12T02:58:06.384Z,100253.47
2023-05-12T03:00:36.417Z,100246.59
2023-05-12T03:03:06.550Z,100256.31
2023-05-12T03:05:37.496Z,100258.31
2023-05-12T03:08:08.037Z,100258.72
2023-05-12T03:10:38.967Z,100262.78
2023-05-12T03:13:11.356Z,100260.34
2023-05-12T03:15:41.907Z,100264.41
2023-05-12T03:18:12.542Z,100268.44
2023-05-12T03:20:42.367Z,100273.31
2023-05-12T03:23:12.987Z,100278.56
2023-05-12T03:25:43.226Z,100288.28
2023-05-12T03:28:15.484Z,100285.88
2023-05-12T03:30:45.902Z,100279.78
2023-05-12T03:33:16.449Z,100269.69
2023-05-12T03:35:46.288Z,100280.19
2023-05-12T03:38:16.361Z,100291.91
2023-05-12T03:40:47.018Z,100296.75
2023-05-12T03:43:19.955Z,100295.16
2023-05-12T03:45:49.752Z,100287.03
2023-05-12T03:48:19.859Z,100304.44
2023-05-12T03:50:50.409Z,100298.38
2023-05-12T03:53:21.129Z,100310.53
2023-05-12T03:55:51.650Z,100321.03
2023-05-12T03:58:25.426Z,100325.88
2023-05-12T04:00:59.237Z,100319.81
2023-05-12T04:03:29.757Z,100323.06
2023-05-12T04:06:03.542Z,100322.66
2023-05-12T04:08:34.440Z,100338.81
2023-05-12T04:11:05.780Z,100337.59
2023-05-12T04:13:38.255Z,100348.13
2023-05-12T04:16:08.861Z,100345.69
2023-05-12T04:18:38.984Z,100347.72
2023-05-12T04:21:09.476Z,100354.59
2023-05-12T04:23:40.802Z,100364.28
2023-05-12T04:26:11.200Z,100369.53
2023-05-12T04:28:44.466Z,100374.00
2023-05-12T04:31:14.464Z,100379.28
2023-05-12T04:33:46.481Z,100388.16
2023-05-12T04:36:17.945Z,100403.94
2023-05-12T04:38:47.853Z,100410.81
2023-05-12T04:41:18.331Z,100408.78
2023-05-12T04:46:24.430Z,100416.88
2023-05-12T04:48:55.096Z,100424.97
2023-05-12T04:51:25.597Z,100423.78
2023-05-12T04:53:56.101Z,100431.44
2023-05-12T04:56:26.535Z,100429.84
2023-05-12T04:58:59.074Z,100436.34
2023-05-12T05:01:29.617Z,100440.38
2023-05-12T05:04:00.596Z,100440.00
2023-05-12T05:06:31.097Z,100448.50
2023-05-12T05:09:01.579Z,100435.94
2023-05-12T05:11:32.110Z,100450.94
2023-05-12T05:14:04.217Z,100447.69
2023-05-12T05:16:34.788Z,100459.00
2023-05-12T05:19:06.777Z,100457.78
2023-05-12T05:21:42.502Z,100465.91
2023-05-12T05:24:13.078Z,100466.69
2023-05-12T05:26:43.553Z,100470.34
2023-05-12T05:29:15.400Z,100473.19
2023-05-12T05:31:45.691Z,100471.56
2023-05-12T05:34:16.286Z,100483.75
2023-05-12T05:36:46.877Z,100487.41
2023-05-12T05:39:17.648Z,100495.91
2023-05-12T05:41:48.001Z,100493.47
2023-05-12T05:44:20.357Z,100503.59
2023-05-12T05:46:50.817Z,100508.44
2023-05-12T05:49:21.262Z,100502.75
2023-05-12T05:51:51.946Z,100510.06
2023-05-12T05:54:22.084Z,100513.69
2023-05-12T05:56:51.952Z,100512.88
2023-05-12T05:59:24.887Z,100508.00
2023-05-12T06:01:54.965Z,100508.03
2023-05-12T06:04:25.130Z,100515.69
2023-05-12T06:06:54.810Z,100516.91
2023-05-12T06:09:25.312Z,100519.75
2023-05-12T06:11:55.721Z,100522.56
2023-05-12T06:14:27.654Z,100523.81
2023-05-12T06:16:57.780Z,100523.00
2023-05-12T06:19:28.504Z,100518.53
2023-05-12T06:21:58.805Z,100525.03
2023-05-12T06:24:29.467Z,100525.00
2023-05-12T06:26:59.938Z,100529.44
2023-05-12T06:29:31.985Z,100538.34
2023-05-12T06:32:02.565Z,100527.38
2023-05-12T06:34:33.005Z,100537.94
2023-05-12T06:37:03.461Z,100555.34
2023-05-12T06:39:33.358Z,100544.00
2023-05-12T06:42:03.367Z,100538.28
2023-05-12T06:44:35.903Z,100537.47
2023-05-12T06:47:06.113Z,100550.44
2023-05-12T06:49:39.102Z,100548.41
2023-05-12T06:52:10.334Z,100556.53
2023-05-12T06:54:41.203Z,100564.63
2023-05-12T06:57:11.803Z,100562.56
2023-05-12T06:59:44.482Z,100572.69
2023-05-12T07:02:14.369Z,100574.72
2023-05-12T07:04:44.907Z,100574.69
2023-05-12T07:07:15.208Z,100584.03
2023-05-12T07:09:45.726Z,100582.78
2023-05-12T07:12:16.412Z,100580.34
2023-05-12T07:14:48.911Z,100583.16
2023-05-12T07:17:19.545Z,100588.81
2023-05-12T07:19:49.623Z,100601.78
2023-05-12T07:22:23.623Z,100594.06
2023-05-12T07:24:54.357Z,100597.28
2023-05-12T07:27:24.922Z,100606.19
2023-05-12T07:29:57.495Z,100600.50
2023-05-12T07:32:28.578Z,100604.13
2023-05-12T07:34:59.025Z,100609.00
2023-05-12T07:37:29.048Z,100612.25
2023-05-12T07:39:59.420Z,100623.16
2023-05-12T07:42:30.421Z,100617.88
2023-05-12T07:45:02.479Z,100626.38
2023-05-12T07:47:33.090Z,100625.56
2023-05-12T07:50:03.620Z,100632.44
2023-05-12T07:52:34.064Z,100628.38
2023-05-12T07:55:04.862Z,100625.50
2023-05-12T07:57:35.227Z,100635.25
2023-05-12T08:00:09.667Z,100629.16
2023-05-12T08:02:40.557Z,100633.59
2023-05-12T08:05:12.434Z,100642.53
2023-05-12T08:07:44.092Z,100639.28
2023-05-12T08:10:15.577Z,100635.19
2023-05-12T08:12:45.528Z,100640.47
2023-05-12T08:15:18.496Z,100642.91
2023-05-12T08:17:49.176Z,100642.50
2023-05-12T08:20:19.200Z,100638.44
2023-05-12T08:22:51.152Z,100641.69
2023-05-12T08:25:21.956Z,100653.88
2023-05-12T08:27:53.737Z,100655.88
2023-05-12T08:30:25.641Z,100646.09
2023-05-12T08:32:56.639Z,100646.50
2023-05-12T08:35:28.706Z,100650.56
2023-05-12T08:38:00.607Z,100648.09
2023-05-12T08:40:36.104Z,100655.81
2023-05-12T08:43:17.690Z,100653.38
2023-05-12T08:45:51.483Z,100657.81
2023-05-12T08:48:24.653Z,100659.41
2023-05-12T08:50:57.110Z,100662.66
2023-05-12T08:53:30.382Z,100665.13
2023-05-12T08:58:42.182Z,100679.31
2023-05-12T09:01:16.522Z,100670.34
2023-05-12T09:03:47.923Z,100667.91
2023-05-12T09:06:19.430Z,100673.97
2023-05-12T09:08:50.427Z,100674.78
2023-05-12T09:11:22.965Z,100667.44
2023-05-12T09:14:03.181Z,100664.97
2023-05-12T09:16:41.794Z,100665.38
2023-05-12T09:19:12.472Z,100672.69
2023-05-12T09:21:43.318Z,100666.56
2023-05-12T09:24:13.110Z,100671.03
2023-05-12T09:26:51.025Z,100677.13
2023-05-12T09:29:31.465Z,100673.06
2023-05-12T09:32:06.030Z,100670.59
2023-05-12T09:34:38.936Z,100673.47
2023-05-12T09:37:11.871Z,100672.59
2023-05-12T09:39:43.164Z,100677.09
2023-05-12T09:42:17.869Z,100681.56
2023-05-12T09:44:49.175Z,100680.75
2023-05-12T09:47:22.300Z,100679.50
2023-05-12T09:49:55.744Z,100678.28
2023-05-12T09:52:28.352Z,100679.88
2023-05-12T09:54:59.244Z,100673.78
2023-05-12T09:57:30.367Z,100685.97
2023-05-12T10:00:00.968Z,100683.50
2023-05-12T10:02:35.601Z,100685.94
2023-05-12T10:05:11.866Z,100683.47
2023-05-12T10:07:43.493Z,100696.91
2023-05-12T10:10:20.435Z,100691.63
2023-05-12T10:12:52.272Z,100686.72
2023-05-12T10:15:26.181Z,100686.28
2023-05-12T10:18:00.891Z,100689.97
2023-05-12T10:20:31.256Z,100685.50
2023-05-12T10:23:03.842Z,100694.03
2023-05-12T10:25:35.794Z,100696.44
2023-05-12T10:28:06.730Z,100696.44
2023-05-12T10:30:38.908Z,100689.13
2023-05-12T10:33:12.087Z,100691.97
2023-05-12T10:35:46.970Z,100691.97
2023-05-12T10:38:20.276Z,100691.97
2023-05-12T10:40:58.987Z,100694.84
2023-05-12T10:43:31.306Z,100691.19
2023-05-12T10:46:22.779Z,100697.28
2023-05-12T10:49:05.328Z,100695.66
2023-05-12T10:51:49.387Z,100694.84
2023-05-12T10:54:32.089Z,100701.34
2023-05-12T10:57:05.923Z,100690.75
2023-05-12T10:59:50.336Z,100700.91
2023-05-12T11:02:32.059Z,100700.91
2023-05-12T11:05:06.993Z,100693.59
2023-05-12T11:07:38.166Z,100703.78
2023-05-12T11:10:17.533Z,100705.38
2023-05-12T11:12:53.925Z,100708.66
2023-05-12T11:15:31.662Z,100712.31
2023-05-12T11:18:12.054Z,100707.84
2023-05-12T11:20:54.215Z,100707.84
2023-05-12T11:23:34.544Z,100707.44
2023-05-12T11:26:07.780Z,100709.50
2023-05-12T11:28:54.495Z,100713.13
2023-05-12T11:31:37.547Z,100713.56
2023-05-12T11:34:13.383Z,100711.94
2023-05-12T11:37:00.137Z,100714.78
2023-05-12T11:39:37.221Z,100704.63
2023-05-12T11:42:14.669Z,100711.94
2023-05-12T11:44:55.061Z,100705.47
2023-05-12T11:47:28.573Z,100705.84
2023-05-12T11:50:00.358Z,100714.41
2023-05-12T11:52:39.985Z,100718.47
2023-05-12T11:55:15.422Z,100714.84
2023-05-12T11:57:48.327Z,100709.56
2023-05-12T12:00:34.995Z,100722.97
2023-05-12T12:03:19.223Z,100718.50
2023-05-12T12:06:03.169Z,100722.56
2023-05-12T12:08:47.021Z,100711.63
2023-05-12T12:11:22.992Z,100725.06
2023-05-12T12:13:58.656Z,100720.59
2023-05-12T12:16:31.495Z,100716.13
2023-05-12T12:19:08.752Z,100721.81
2023-05-12T12:21:41.664Z,100725.06
2023-05-12T12:24:21.694Z,100731.19
2023-05-12T12:26:58.715Z,100725.06
2023-05-12T12:29:32.302Z,100724.69
2023-05-12T12:32:05.894Z,100723.47
2023-05-12T12:34:38.362Z,100720.22
2023-05-12T12:37:09.578Z,100718.63
2023-05-12T12:39:42.278Z,100725.53
2023-05-12T12:42:16.240Z,100723.09
2023-05-12T12:44:50.782Z,100728.00
2023-05-12T12:47:22.427Z,100722.72
2023-05-12T12:49:54.489Z,100743.88
2023-05-12T12:52:25.106Z,100733.72
2023-05-12T12:54:57.522Z,100735.38
2023-05-12T12:57:28.484Z,100738.59
2023-05-12T12:59:58.715Z,100737.41
2023-05-12T13:02:29.174Z,100739.06
2023-05-12T13:04:59.367Z,100738.22
2023-05-12T13:07:29.065Z,100737.03
2023-05-12T13:10:01.829Z,100735.41
2023-05-12T13:12:32.924Z,100729.75
2023-05-12T13:15:03.682Z,100734.25
2023-05-12T13:17:34.346Z,100736.69
2023-05-12T13:20:04.841Z,100739.13
2023-05-12T13:22:35.399Z,100737.50
2023-05-12T13:25:08.566Z,100747.69
2023-05-12T13:27:39.913Z,100739.19
2023-05-12T13:30:13.495Z,100751.78
2023-05-12T13:32:44.929Z,100757.91
2023-05-12T13:35:15.399Z,100759.13
2023-05-12T13:37:45.948Z,100765.59
2023-05-12T13:40:21.179Z,100763.16
2023-05-12T13:42:56.057Z,100761.94
2023-05-12T13:45:26.740Z,100763.59
2023-05-12T13:48:03.450Z,100764.81
2023-05-12T13:50:34.136Z,100759.13
2023-05-12T13:53:05.706Z,100765.25
2023-05-12T13:55:40.984Z,100768.47
2023-05-12T13:58:13.631Z,100765.25
2023-05-12T14:00:45.669Z,100770.56
2023-05-12T14:03:15.879Z,100766.50
2023-05-12T14:05:46.201Z,100773.81
2023-05-12T14:08:16.482Z,100769.75
2023-05-12T14:10:48.600Z,100765.72
2023-05-12T14:13:19.162Z,100770.19
2023-05-12T14:15:50.314Z,100772.63
2023-05-12T14:18:21.233Z,100774.28
2023-05-12T14:20:52.047Z,100773.88
2023-05-12T14:23:21.994Z,100774.25
2023-05-12T14:25:54.411Z,100773.06
2023-05-12T14:28:25.769Z,100769.81
2023-05-12T14:30:57.679Z,100775.91
2023-05-12T14:33:30.208Z,100778.34
2023-05-12T14:36:08.734Z,100779.97
2023-05-12T14:38:41.109Z,100780.41
2023-05-12T14:41:15.378Z,100780.78
2023-05-12T14:43:46.416Z,100780.34
2023-05-12T14:46:18.838Z,100787.69
2023-05-12T14:48:49.826Z,100788.91
2023-05-12T14:51:22.566Z,100795.78
2023-05-12T14:53:55.793Z,100793.38
2023-05-12T14:56:33.991Z,100800.28
2023-05-12T14:59:07.197Z,100803.53
2023-05-12T15:01:37.987Z,100794.59
2023-05-12T15:04:09.506Z,100789.34
2023-05-12T15:06:40.657Z,100793.41
2023-05-12T15:09:11.808Z,100786.50
2023-05-12T15:11:45.010Z,100799.88
2023-05-12T15:14:15.145Z,100793.78
2023-05-12T15:16:45.830Z,100802.72
2023-05-12T15:19:17.860Z,100803.53
2023-05-12T15:21:48.511Z,100802.31
2023-05-12T15:24:19.293Z,100816.94
2023-05-12T15:26:51.922Z,100812.47
2023-05-12T15:29:22.509Z,100811.25
2023-05-12T15:31:53.130Z,100813.72
2023-05-12T15:34:23.860Z,100808.41
2023-05-12T15:36:54.494Z,100814.50
2023-05-12T15:39:25.088Z,100821.81
2023-05-12T15:41:56.885Z,100828.72
2023-05-12T15:44:27.850Z,100832.34
2023-05-12T15:46:57.850Z,100834.78
2023-05-12T15:49:28.792Z,100835.19
2023-05-12T15:51:59.219Z,100837.63
2023-05-12T15:54:30.886Z,100839.25
2023-05-12T15:57:02.912Z,100830.31
2023-05-12T15:59:33.629Z,100826.25
2023-05-12T16:02:03.809Z,100832.34
2023-05-12T16:04:33.885Z,100839.59
2023-05-12T16:07:04.095Z,100837.59
2023-05-12T16:09:34.622Z,100844.06
2023-05-12T16:12:09.294Z,100846.09
2023-05-12T16:14:39.393Z,100848.91
2023-05-12T16:17:10.230Z,100864.75
2023-05-12T16:19:40.298Z,100859.06
2023-05-12T16:22:10.951Z,100863.53
2023-05-12T16:24:41.099Z,100863.09
2023-05-12T16:27:13.177Z,100868.78
2023-05-12T16:29:45.961Z,100875.66
2023-05-12T16:32:17.943Z,100877.25
2023-05-12T16:34:48.404Z,100879.72
2023-05-12T16:37:18.541Z,100887.81
2023-05-12T16:39:49.030Z,100897.53
2023-05-12T16:42:21.705Z,100902.78
2023-05-12T16:44:55.368Z,100900.34
2023-05-12T16:47:26.885Z,100899.94
2023-05-12T16:49:58.420Z,100907.66
2023-05-12T16:52:32.237Z,100912.91
2023-05-12T16:55:04.784Z,100919.78
2023-05-12T16:57:37.945Z,100921.00
2023-05-12T17:00:11.740Z,100923.38
2023-05-12T17:02:43.695Z,100929.47
2023-05-12T17:05:16.529Z,100927.03
2023-05-12T17:07:52.629Z,100931.06
2023-05-12T17:10:23.892Z,100932.66
2023-05-12T17:12:55.923Z,100927.81
2023-05-12T17:15:30.381Z,100927.81
2023-05-12T17:18:03.251Z,100928.19
2023-05-12T17:20:35.032Z,100928.59
2023-05-12T17:23:08.754Z,100933.84
2023-05-12T17:25:40.156Z,100946.41
2023-05-12T17:28:17.004Z,100958.94
2023-05-12T17:30:53.013Z,100957.72
2023-05-12T17:33:25.201Z,100956.09
2023-05-12T17:36:10.980Z,100952.84
2023-05-12T17:38:48.594Z,100956.91
2023-05-12T17:41:21.843Z,100971.47
2023-05-12T17:43:59.633Z,100961.34
2023-05-12T17:46:46.825Z,100969.03
2023-05-12T17:49:21.159Z,100974.28
2023-05-12T17:51:54.257Z,100969.81
2023-05-12T17:54:29.347Z,100978.31
2023-05-12T17:57:04.384Z,100971.03
2023-05-12T17:59:40.555Z,100977.91
2023-05-12T18:02:17.828Z,100982.78
2023-05-12T18:04:53.080Z,100976.69
2023-05-12T18:07:27.913Z,100981.56
2023-05-12T18:10:02.513Z,100985.97
2023-05-12T18:12:39.260Z,100981.09
2023-05-12T18:15:18.506Z,100980.69
2023-05-12T18:17:53.719Z,100984.72
2023-05-12T18:20:29.664Z,100987.97
2023-05-12T18:23:04.484Z,100992.00
2023-05-12T18:25:37.777Z,100998.47
2023-05-12T18:28:14.706Z,100996.84
2023-05-12T18:30:58.004Z,100986.72
2023-05-12T18:33:35.522Z,100994.41
2023-05-12T18:36:11.918Z,100996.81
2023-05-12T18:38:46.180Z,101013.03
2023-05-12T18:41:23.195Z,101011.41
2023-05-12T18:44:05.580Z,101012.19
2023-05-12T18:46:43.970Z,101011.78
2023-05-12T18:49:22.744Z,101013.38
2023-05-12T18:51:56.980Z,101009.28
2023-05-12T18:54:31.733Z,101022.66
2023-05-12T18:57:09.630Z,101021.41
2023-05-12T18:59:52.971Z,101025.03
2023-05-12T19:02:38.708Z,101022.97
2023-05-12T19:05:15.773Z,101028.63
2023-05-12T19:07:54.257Z,101028.59
2023-05-12T19:10:29.618Z,101034.63
2023-05-12T19:13:11.197Z,101035.03
2023-05-12T19:15:53.532Z,101036.63
2023-05-12T19:18:39.894Z,101041.03
2023-05-12T19:21:18.992Z,101041.00
2023-05-12T19:24:04.880Z,101044.25
2023-05-12T19:26:41.218Z,101045.44
2023-05-12T19:29:16.986Z,101040.97
2023-05-12T19:31:53.672Z,101044.22
2023-05-12T19:34:34.095Z,101049.88
2023-05-12T19:37:11.800Z,101042.97
2023-05-12T19:40:00.462Z,101047.81
2023-05-12T19:42:34.865Z,101043.75
2023-05-12T19:45:14.110Z,101048.59
2023-05-12T19:47:49.535Z,101057.09
2023-05-12T19:50:44.753Z,101049.38
2023-05-12T19:53:24.572Z,101047.31
2023-05-12T19:56:08.905Z,101048.53
2023-05-12T19:58:46.690Z,101040.00
2023-05-12T20:01:25.611Z,101041.59
2023-05-12T20:04:02.114Z,101034.28
2023-05-12T20:06:45.564Z,101038.31
2023-05-12T20:09:21.679Z,101036.66
2023-05-12T20:11:59.070Z,101025.72
2023-05-12T20:14:33.721Z,101028.56
2023-05-12T20:17:11.267Z,101032.19
2023-05-12T20:19:49.302Z,101029.38
2023-05-12T20:22:29.165Z,101039.06
2023-05-12T20:25:10.183Z,101034.22
2023-05-12T20:27:45.347Z,101032.19
2023-05-12T20:30:22.968Z,101027.72
2023-05-12T20:33:07.616Z,101030.56
2023-05-12T20:35:49.226Z,101024.09
2023-05-12T20:38:28.704Z,101025.31
2023-05-12T20:41:18.646Z,101029.34
2023-05-12T20:43:57.374Z,101031.38
2023-05-12T20:46:37.871Z,101027.69
2023-05-12T20:49:25.810Z,101024.44
2023-05-12T20:52:06.224Z,101025.63
2023-05-12T20:54:48.098Z,101026.03
2023-05-12T20:57:24.583Z,101036.13
2023-05-12T21:00:02.146Z,101036.50
2023-05-12T21:02:39.911Z,101048.63
2023-05-12T21:05:20.027Z,101044.16
2023-05-12T21:07:56.683Z,101045.34
2023-05-12T21:10:39.774Z,101042.53
2023-05-12T21:13:16.282Z,101037.25
2023-05-12T21:15:50.769Z,101048.59
2023-05-12T21:18:27.462Z,101031.59
2023-05-12T21:21:04.457Z,101039.25
2023-05-12T21:23:38.988Z,101030.75
2023-05-12T21:26:24.775Z,101040.09
2023-05-12T21:28:59.994Z,101043.28
2023-05-12T21:31:35.776Z,101032.34
2023-05-12T21:34:11.294Z,101037.59
2023-05-12T21:36:44.305Z,101044.84
2023-05-12T21:39:15.326Z,101046.81
2023-05-12T21:41:53.716Z,101038.72
2023-05-12T21:44:25.472Z,101040.31
2023-05-12T21:46:59.136Z,101034.22
2023-05-12T21:49:35.227Z,101036.22
2023-05-12T21:52:08.681Z,101037.78
2023-05-12T21:54:40.436Z,101039.00
2023-05-12T21:57:13.075Z,101042.22
2023-05-12T21:59:43.556Z,101043.41
2023-05-12T22:02:14.277Z,101038.16
2023-05-12T22:04:45.317Z,101039.34
2023-05-12T22:07:16.322Z,101039.34
2023-05-12T22:09:47.116Z,101034.88
2023-05-12T22:12:21.744Z,101035.28
2023-05-12T22:14:52.434Z,101033.66
2023-05-12T22:17:23.160Z,101036.09
2023-05-12T22:19:53.687Z,101028.00
2023-05-12T22:22:24.364Z,101032.81
2023-05-12T22:24:54.866Z,101033.66
2023-05-12T22:27:27.238Z,101028.00
2023-05-12T22:29:57.885Z,101033.63
2023-05-12T22:32:28.781Z,101026.31
2023-05-12T22:34:59.436Z,101023.06
2023-05-12T22:37:29.430Z,101018.94
2023-05-12T22:39:59.491Z,101023.78
2023-05-12T22:42:31.605Z,101016.50
2023-05-12T22:45:05.128Z,101023.34
2023-05-12T22:47:35.845Z,101023.34
2023-05-12T22:50:06.523Z,101018.88
2023-05-12T22:52:37.098Z,101013.22
2023-05-12T22:55:08.112Z,101019.28
2023-05-12T22:57:41.297Z,101014.81
2023-05-12T23:00:13.436Z,101011.94
2023-05-12T23:02:43.571Z,101009.50
2023-05-12T23:05:14.650Z,101015.16
2023-05-12T23:07:44.762Z,101018.38
2023-05-12T23:10:15.010Z,101005.41
2023-05-12T23:12:47.539Z,101007.44
2023-05-12T23:15:18.278Z,101006.63
2023-05-12T23:17:48.433Z,101001.75
2023-05-12T23:20:19.402Z,101007.78
2023-05-12T23:22:49.537Z,101002.50
2023-05-12T23:25:19.959Z,101003.69
2023-05-12T23:27:52.394Z,101002.06
2023-05-12T23:30:23.403Z,101000.81
2023-05-12T23:32:53.378Z,101004.84
2023-05-12T23:35:25.417Z,101006.44
2023-05-12T23:37:56.046Z,101009.66
2023-05-12T23:40:26.813Z,101008.03
2023-05-12T23:42:58.971Z,101010.03
2023-05-12T23:45:29.254Z,101015.25
2023-05-12T23:47:59.851Z,101020.88
2023-05-12T23:50:30.492Z,101026.53
2023-05-12T23:53:03.937Z,101024.94
2023-05-12T23:55:34.573Z,101028.13
2023-05-12T23:58:07.265Z,101026.94
